createdAt,value
2024-05-09T02:10:25.907Z,43.3
2024-05-09T02:25:43.310Z,44
2024-05-09T02:40:44.831Z,44
2024-05-09T02:55:45.543Z,43.4
2024-05-09T04:10:35.847Z,44.1
2024-05-09T04:25:47.693Z,43.9
2024-05-09T04:40:48.062Z,43.7
2024-05-09T04:55:49.492Z,43.9
2024-05-09T05:10:40.261Z,43.4
2024-05-09T05:25:59.304Z,44.2
2024-05-09T05:41:00.156Z,43.4
2024-05-09T05:56:01.589Z,43.2
2024-05-09T06:10:50.355Z,43.8
2024-05-09T06:26:02.628Z,43.3
2024-05-09T06:41:02.589Z,43.8
2024-05-09T06:56:03.942Z,43.7
2024-05-09T07:11:00.231Z,43.2
2024-05-09T07:26:10.989Z,43.8
2024-05-09T07:41:12.344Z,43.4
2024-05-09T07:56:13.962Z,48.1
2024-05-09T08:11:10.384Z,46.7
2024-05-09T08:26:21.715Z,48.7
2024-05-09T08:41:21.937Z,47.2
2024-05-09T08:56:23.572Z,48.8
2024-05-09T11:22:22.221Z,51.5
2024-05-09T11:37:26.012Z,51.4
2024-05-09T11:52:26.504Z,48
2024-05-09T12:07:26.840Z,45.6
2024-05-09T12:22:32.287Z,45.3
2024-05-09T12:37:36.230Z,45
2024-05-09T12:52:37.078Z,44.8
2024-05-09T13:07:37.754Z,45.6
2024-05-09T14:12:12.408Z,44.3
2024-05-09T14:27:23.486Z,43.5
2024-05-09T14:42:24.463Z,44.4
2024-05-09T14:57:25.184Z,44.1
2024-05-09T15:12:21.780Z,44
2024-05-09T15:27:31.887Z,43.7
2024-05-09T15:42:31.848Z,43.9
2024-05-09T15:57:32.785Z,43.5
2024-05-09T17:12:42.732Z,43.9
2024-05-09T17:27:52.840Z,43.8
2024-05-09T17:42:53.883Z,43.2
2024-05-09T17:57:55.284Z,43.4
2024-05-09T18:12:52.293Z,43.6
2024-05-09T18:28:03.825Z,43.4
2024-05-09T18:43:04.987Z,43.7
2024-05-09T18:58:05.142Z,43
2024-05-09T19:13:08.427Z,43.9
2024-05-09T19:28:25.145Z,43.4
2024-05-09T19:43:26.868Z,43.4
2024-05-09T19:58:27.707Z,43.8
2024-05-09T20:13:12.164Z,43.4
2024-05-09T21:13:22.388Z,43.5
2024-05-09T21:28:32.669Z,43.6
2024-05-09T21:43:33.826Z,43.2
2024-05-09T21:58:34.743Z,44
